Time;durP1;ratioP1;P1;durP2;ratioP2;P2;SDS_P1;SDS_P2;PMS_P1;PMS_P2;Temp;Humidity;BMP_temperature;BMP_pressure;BME280_temperature;BME280_humidity;BME280_pressure;Samples;Min_cycle;Max_cycle;Signal;HPM_P1;HPM_P2
2022/07/17 00:05:36;;;;;;;5.30;2.80;;;16.70;99.90;;;;;;6674995;89;20058;-79
2022/07/17 00:15:37;;;;;;;5.28;1.90;;;16.70;99.90;;;;;;6673173;89;20325;-78
2022/07/17 00:25:38;;;;;;;6.60;2.75;;;16.70;99.90;;;;;;6672380;89;20180;-79
2022/07/17 00:35:39;;;;;;;4.25;1.75;;;16.90;99.90;;;;;;6676087;88;20208;-79
2022/07/17 00:45:39;;;;;;;4.50;1.60;;;16.10;99.90;;;;;;6675159;89;20215;-80
2022/07/17 00:55:41;;;;;;;4.18;1.70;;;15.70;99.90;;;;;;6677399;89;20295;-80
2022/07/17 01:05:42;;;;;;;4.47;1.60;;;15.70;99.90;;;;;;6676739;89;20258;-80
2022/07/17 01:15:43;;;;;;;4.85;1.80;;;15.70;99.90;;;;;;6680385;88;20231;-78
2022/07/17 01:25:44;;;;;;;3.33;1.75;;;15.50;99.90;;;;;;6682132;89;20690;-79
2022/07/17 01:35:45;;;;;;;5.68;1.87;;;15.40;99.90;;;;;;6677564;88;20212;-79
2022/07/17 01:46:06;;;;;;;3.72;1.70;;;15.30;99.90;;;;;;6666950;77;20234;-79
2022/07/17 01:56:07;;;;;;;4.57;1.83;;;15.30;99.90;;;;;;6661968;89;20242;-78
2022/07/17 02:06:09;;;;;;;3.42;1.55;;;14.90;99.90;;;;;;6664565;89;20320;-79
2022/07/17 02:16:10;;;;;;;3.50;1.70;;;14.80;99.90;;;;;;6665296;89;20209;-79
2022/07/17 02:26:10;;;;;;;4.32;1.60;;;14.70;99.90;;;;;;6664386;89;20195;-78
2022/07/17 02:36:11;;;;;;;4.60;1.52;;;14.40;99.90;;;;;;6663532;89;20201;-79
2022/07/17 02:46:13;;;;;;;4.97;1.35;;;14.20;99.90;;;;;;6662627;88;20220;-79
2022/07/17 02:56:13;;;;;;;6.03;1.70;;;14.10;99.90;;;;;;6658583;89;20311;-79
2022/07/17 03:06:14;;;;;;;2.30;1.15;;;13.90;99.90;;;;;;6662271;89;20188;-78
2022/07/17 03:16:15;;;;;;;4.72;1.27;;;13.80;99.90;;;;;;6666381;89;20204;-79
2022/07/17 03:26:15;;;;;;;4.10;1.60;;;13.60;99.90;;;;;;6665461;89;20771;-79
2022/07/17 03:36:16;;;;;;;4.75;1.58;;;13.50;99.90;;;;;;6664675;89;20222;-79
2022/07/17 03:46:16;;;;;;;3.92;1.50;;;13.40;99.90;;;;;;6660993;89;20882;-79
2022/07/17 03:56:17;;;;;;;4.30;1.40;;;13.30;99.90;;;;;;6664260;89;20358;-79
2022/07/17 04:06:17;;;;;;;4.93;1.65;;;13.50;99.90;;;;;;6655333;89;20762;-78
2022/07/17 04:16:18;;;;;;;2.75;1.30;;;13.20;99.90;;;;;;6655337;89;20680;-79
2022/07/17 04:26:18;;;;;;;4.82;1.60;;;13.10;99.90;;;;;;6655481;89;20390;-79
2022/07/17 04:36:19;;;;;;;4.47;1.35;;;13.20;99.90;;;;;;6656170;89;20252;-79
2022/07/17 04:46:20;;;;;;;6.05;1.40;;;13.40;99.90;;;;;;6654644;89;20254;-79
2022/07/17 04:56:20;;;;;;;4.97;1.27;;;13.60;99.90;;;;;;6654663;89;20226;-78
2022/07/17 05:06:21;;;;;;;3.97;1.40;;;14.00;99.90;;;;;;6654314;89;20188;-79
2022/07/17 05:16:21;;;;;;;5.28;1.60;;;13.80;99.90;;;;;;6650340;89;20195;-79
2022/07/17 05:26:22;;;;;;;3.22;1.20;;;13.70;99.90;;;;;;6652290;89;20201;-78
2022/07/17 05:36:22;;;;;;;3.17;1.30;;;13.80;99.90;;;;;;6654167;89;20202;-78
2022/07/17 05:46:23;;;;;;;5.62;1.70;;;14.30;99.90;;;;;;6655269;89;20196;-79
2022/07/17 05:56:23;;;;;;;3.90;1.45;;;14.40;99.90;;;;;;6655165;89;20199;-79
2022/07/17 06:06:24;;;;;;;4.40;1.50;;;14.40;99.90;;;;;;6654995;89;20198;-79
2022/07/17 06:16:24;;;;;;;3.80;1.45;;;15.00;99.90;;;;;;6656256;89;20262;-79
2022/07/17 06:26:25;;;;;;;4.30;1.50;;;15.80;99.90;;;;;;6653374;89;20216;-79
2022/07/17 06:36:25;;;;;;;4.00;1.42;;;16.70;99.90;;;;;;6657183;89;20209;-80
2022/07/17 06:46:26;;;;;;;4.70;1.50;;;17.50;99.90;;;;;;6656994;89;20208;-80
2022/07/17 06:56:27;;;;;;;6.10;1.42;;;18.00;99.90;;;;;;6656002;89;20225;-79
2022/07/17 07:06:27;;;;;;;4.93;1.58;;;18.70;99.90;;;;;;6656736;89;20195;-80
2022/07/17 07:16:28;;;;;;;7.15;1.50;;;19.30;99.90;;;;;;6656892;89;20191;-79
2022/07/17 07:26:29;;;;;;;3.72;1.30;;;19.60;99.90;;;;;;6658227;89;20245;-80
2022/07/17 07:36:30;;;;;;;4.85;1.40;;;20.10;99.90;;;;;;6657906;89;20199;-79
2022/07/17 07:46:30;;;;;;;5.55;1.30;;;20.60;99.90;;;;;;6654947;89;20237;-79
2022/07/17 07:56:31;;;;;;;4.62;1.30;;;21.40;96.00;;;;;;6654240;89;20340;-79
2022/07/17 08:06:32;;;;;;;3.75;1.20;;;22.00;94.50;;;;;;6655478;89;20231;-79
2022/07/17 08:16:33;;;;;;;4.53;1.50;;;22.20;91.90;;;;;;6655485;89;20783;-80
2022/07/17 08:26:33;;;;;;;4.87;1.35;;;23.00;91.40;;;;;;6655706;89;20253;-79
2022/07/17 08:36:34;;;;;;;3.72;1.00;;;22.90;89.90;;;;;;6655966;89;20726;-80
2022/07/17 08:46:39;;;;;;;3.95;1.12;;;23.20;87.80;;;;;;6651082;89;20200;-79
2022/07/17 08:56:39;;;;;;;4.18;1.20;;;24.80;85.40;;;;;;6653883;89;20271;-79
2022/07/17 09:06:40;;;;;;;3.45;0.90;;;25.60;80.90;;;;;;6653628;89;20420;-79
2022/07/17 09:16:48;;;;;;;2.70;0.90;;;26.60;75.20;;;;;;6653394;89;20709;-79
2022/07/17 09:26:49;;;;;;;2.62;0.90;;;27.00;74.30;;;;;;6656346;89;20224;-78
2022/07/17 09:37:01;;;;;;;3.42;0.90;;;27.70;70.80;;;;;;6657453;89;20244;-79
2022/07/17 09:47:02;;;;;;;4.57;1.00;;;28.30;69.20;;;;;;6657733;89;20195;-82
2022/07/17 09:57:02;;;;;;;5.25;0.80;;;28.40;68.60;;;;;;6659478;88;20209;-79
2022/07/17 10:07:05;;;;;;;3.97;1.00;;;29.00;66.60;;;;;;6659294;89;20199;-79
2022/07/17 10:17:07;;;;;;;3.10;0.90;;;30.10;62.20;;;;;;6658672;89;20210;-79
2022/07/17 10:27:16;;;;;;;;;;;28.80;63.70;;;;;;6656066;89;20653;-79
2022/07/17 10:37:23;;;;;;;2.30;1.00;;;29.50;63.80;;;;;;6655504;89;20114;-79
2022/07/17 10:47:24;;;;;;;3.60;1.10;;;29.70;62.20;;;;;;6655523;89;20356;-78
2022/07/17 10:57:24;;;;;;;2.00;0.80;;;30.70;61.50;;;;;;6655033;89;20250;-79
2022/07/17 11:07:25;;;;;;;3.77;1.10;;;31.50;59.20;;;;;;6657460;89;20185;-79
2022/07/17 11:17:26;;;;;;;1.92;1.00;;;31.80;57.40;;;;;;6657412;89;20339;-78
2022/07/17 11:27:27;;;;;;;;;;;31.30;57.70;;;;;;6657849;89;20624;-79
2022/07/17 11:37:30;;;;;;;3.07;1.10;;;32.40;56.70;;;;;;6655153;89;20201;-79
2022/07/17 11:47:31;;;;;;;4.35;1.12;;;33.10;55.40;;;;;;6655047;89;20219;-79
2022/07/17 11:57:48;;;;;;;3.70;1.10;;;33.30;55.10;;;;;;6656845;88;20591;-79
2022/07/17 12:07:48;;;;;;;4.97;1.12;;;33.30;54.00;;;;;;6654946;89;20188;-79
2022/07/17 12:17:49;;;;;;;2.50;0.90;;;33.10;53.00;;;;;;6667912;89;20218;-79
2022/07/17 12:27:49;;;;;;;2.70;0.90;;;32.80;51.90;;;;;;6662045;89;20201;-79
2022/07/17 12:37:50;;;;;;;5.35;1.10;;;33.10;52.10;;;;;;6654929;89;20271;-79
2022/07/17 12:47:50;;;;;;;2.77;0.93;;;33.00;52.20;;;;;;6654343;89;20243;-78
2022/07/17 12:57:51;;;;;;;2.67;0.82;;;33.00;52.30;;;;;;6634188;89;20213;-78
2022/07/17 13:07:51;;;;;;;3.73;0.97;;;33.60;52.00;;;;;;6636955;89;20206;-79
2022/07/17 13:17:52;;;;;;;2.45;0.90;;;34.10;51.00;;;;;;6645706;89;20218;-78
2022/07/17 13:27:52;;;;;;;3.37;1.60;;;34.10;50.80;;;;;;6663084;89;20647;-79
2022/07/17 13:47:57;;;;;;;2.10;1.12;;;34.50;49.80;;;;;;6666903;89;20231;-77
2022/07/17 13:57:58;;;;;;;3.65;1.33;;;34.30;48.20;;;;;;6663974;89;20312;-76
2022/07/17 14:07:59;;;;;;;2.40;1.17;;;34.10;49.10;;;;;;6670562;89;20643;-77
2022/07/17 14:18:00;;;;;;;2.67;1.20;;;34.10;48.80;;;;;;6661277;89;20263;-77
2022/07/17 14:28:01;;;;;;;3.62;1.12;;;33.80;47.40;;;;;;6656154;89;20204;-77
2022/07/17 14:38:02;;;;;;;1.83;1.00;;;33.90;47.40;;;;;;6663073;89;20229;-79
2022/07/17 14:48:02;;;;;;;2.42;1.15;;;33.90;47.90;;;;;;6661349;89;20552;-77
2022/07/17 14:58:03;;;;;;;3.03;1.20;;;33.90;46.10;;;;;;6670567;89;20377;-77
2022/07/17 15:08:04;;;;;;;3.40;1.48;;;33.40;47.50;;;;;;6663685;89;20247;-77
2022/07/17 15:18:04;;;;;;;2.80;1.00;;;33.10;48.30;;;;;;6651173;89;20291;-77
2022/07/17 15:28:26;;;;;;;;;;;;;;;;;;;;;
2022/07/17 15:38:27;;;;;;;2.78;1.10;;;33.80;47.60;;;;;;6670635;89;20344;-77
2022/07/17 15:48:27;;;;;;;3.30;1.12;;;33.10;46.70;;;;;;6671605;89;20206;-77
2022/07/17 15:58:28;;;;;;;3.07;1.20;;;33.40;47.10;;;;;;6659322;89;20220;-77
2022/07/17 16:08:28;;;;;;;2.55;1.12;;;33.40;46.80;;;;;;6663075;89;20205;-77
2022/07/17 16:18:29;;;;;;;2.93;1.00;;;33.20;46.80;;;;;;6667258;89;20208;-77
2022/07/17 16:28:30;;;;;;;4.55;1.10;;;33.40;47.50;;;;;;6649664;89;20308;-77
2022/07/17 16:38:30;;;;;;;5.63;1.13;;;34.00;47.50;;;;;;6666533;88;20215;-78
2022/07/17 16:48:31;;;;;;;2.45;1.20;;;32.30;48.80;;;;;;6667825;89;20247;-76
2022/07/17 16:58:31;;;;;;;4.03;1.30;;;31.60;49.10;;;;;;6673598;89;20373;-77
2022/07/17 17:08:32;;;;;;;4.40;1.40;;;31.40;50.20;;;;;;6671409;89;20680;-77
2022/07/17 17:18:33;;;;;;;4.20;1.23;;;31.40;50.20;;;;;;6666545;89;20203;-76
2022/07/17 17:28:33;;;;;;;2.70;1.20;;;31.60;50.30;;;;;;6655140;89;20188;-77
2022/07/17 17:38:34;;;;;;;2.20;1.20;;;30.90;51.30;;;;;;6654465;89;20271;-77
2022/07/17 17:48:34;;;;;;;4.70;1.20;;;30.60;52.60;;;;;;6663775;89;20246;-77
2022/07/17 17:58:35;;;;;;;3.87;1.53;;;30.70;52.40;;;;;;6658441;89;20207;-77
2022/07/17 18:08:36;;;;;;;3.30;1.25;;;30.40;53.10;;;;;;6662478;89;20531;-76
2022/07/17 18:18:36;;;;;;;3.05;1.10;;;29.90;55.00;;;;;;6665964;89;20241;-76
2022/07/17 18:28:37;;;;;;;2.62;1.10;;;29.60;54.90;;;;;;6658080;89;20847;-76
2022/07/17 18:38:38;;;;;;;5.60;1.00;;;30.10;54.70;;;;;;6661508;89;20340;-76
2022/07/17 18:48:38;;;;;;;3.67;1.10;;;30.20;54.10;;;;;;6668228;89;20208;-76
2022/07/17 18:58:39;;;;;;;4.30;1.30;;;29.20;55.90;;;;;;6661919;89;20214;-77
2022/07/17 19:08:40;;;;;;;4.32;1.23;;;28.40;56.60;;;;;;6671921;89;20203;-77
2022/07/17 19:18:40;;;;;;;4.12;1.50;;;27.70;57.60;;;;;;6663926;89;20288;-77
2022/07/17 19:28:41;;;;;;;3.58;1.25;;;27.20;58.70;;;;;;6666588;89;20817;-77
2022/07/17 19:48:59;;;;;;;3.85;1.70;;;25.80;61.20;;;;;;6668856;89;21353;-77
2022/07/17 19:59:00;;;;;;;4.12;2.00;;;25.40;62.30;;;;;;6672199;89;20201;-79
2022/07/17 20:09:00;;;;;;;5.00;2.28;;;24.90;64.50;;;;;;6665101;89;20588;-78
2022/07/17 20:19:01;;;;;;;5.57;2.60;;;24.40;65.90;;;;;;6671250;89;20275;-78
2022/07/17 20:29:02;;;;;;;7.65;2.25;;;24.10;67.30;;;;;;6686377;89;20315;-80
2022/07/17 20:39:04;;;;;;;9.25;4.30;;;23.80;68.10;;;;;;6657692;89;20239;-79
2022/07/17 20:49:05;;;;;;;9.00;4.43;;;23.50;68.60;;;;;;6659893;89;20229;-81
2022/07/17 20:59:05;;;;;;;4.65;2.80;;;23.40;69.80;;;;;;6664799;89;20207;-81
2022/07/17 21:09:06;;;;;;;7.60;3.55;;;23.00;71.20;;;;;;6654948;89;20214;-79
2022/07/17 21:19:06;;;;;;;5.20;2.60;;;22.70;73.00;;;;;;6655751;89;20287;-79
2022/07/17 21:29:07;;;;;;;8.88;3.70;;;22.30;73.90;;;;;;6655025;89;20195;-76
2022/07/17 21:39:08;;;;;;;5.03;2.33;;;22.00;74.60;;;;;;6654179;89;20215;-81
2022/07/17 21:49:08;;;;;;;4.73;2.17;;;21.70;75.80;;;;;;6657168;89;20238;-80
2022/07/17 21:59:09;;;;;;;6.57;2.60;;;21.90;77.00;;;;;;6657687;89;20568;-79
2022/07/17 22:09:09;;;;;;;5.87;2.00;;;21.50;78.10;;;;;;6658104;89;20245;-80
2022/07/17 22:19:10;;;;;;;5.23;1.80;;;21.40;78.40;;;;;;6657346;89;20308;-79
2022/07/17 22:29:11;;;;;;;2.78;1.60;;;21.10;80.10;;;;;;6659934;89;20527;-79
2022/07/17 22:39:11;;;;;;;3.97;1.70;;;20.80;82.30;;;;;;6660807;89;20191;-77
2022/07/17 22:49:12;;;;;;;5.03;2.45;;;20.70;84.50;;;;;;6650577;89;20204;-78
2022/07/17 22:59:12;;;;;;;4.80;2.00;;;20.30;88.40;;;;;;6649330;89;20191;-76
2022/07/17 23:09:13;;;;;;;3.30;1.80;;;20.00;92.00;;;;;;6649795;89;20231;-77
2022/07/17 23:19:14;;;;;;;5.72;1.80;;;20.00;93.90;;;;;;6651080;89;20207;-77
2022/07/17 23:29:14;;;;;;;4.25;1.58;;;19.80;96.30;;;;;;6649413;89;20187;-79
2022/07/17 23:39:15;;;;;;;5.87;1.50;;;19.40;98.50;;;;;;6649841;89;20199;-78
2022/07/17 23:49:15;;;;;;;8.20;1.67;;;19.60;98.50;;;;;;6649786;89;20515;-78
2022/07/17 23:59:16;;;;;;;4.85;1.67;;;19.50;99.20;;;;;;6650757;89;20203;-78
